Time;durP1;ratioP1;P1;durP2;ratioP2;P2;SDS_P1;SDS_P2;PMS_P1;PMS_P2;Temp;Humidity;BMP_temperature;BMP_pressure;BME280_temperature;BME280_humidity;BME280_pressure;Samples;Min_cycle;Max_cycle;Signal;HPM_P1;HPM_P2
2022/11/14 00:02:01;;;;;;;33.65;21.50;;;5.90;99.90;;;;;;4992209;28;20022;-73
2022/11/14 00:04:26;;;;;;;32.10;20.63;;;5.90;99.90;;;;;;4991461;28;20135;-73
2022/11/14 00:06:52;;;;;;;31.65;20.38;;;5.90;99.90;;;;;;4992527;28;20105;-73
2022/11/14 00:09:18;;;;;;;29.60;20.55;;;5.90;99.90;;;;;;4992707;28;20402;-73
2022/11/14 00:11:43;;;;;;;28.80;20.40;;;5.80;99.90;;;;;;4992348;28;20033;-72
2022/11/14 00:14:10;;;;;;;30.88;19.83;;;5.80;99.90;;;;;;4992842;28;20027;-73
2022/11/14 00:16:36;;;;;;;31.42;20.25;;;5.80;99.90;;;;;;4992268;28;20463;-73
2022/11/14 00:19:02;;;;;;;31.10;19.88;;;5.80;99.90;;;;;;4992331;28;20077;-73
2022/11/14 00:21:27;;;;;;;29.58;20.27;;;5.80;99.90;;;;;;4992992;28;20077;-73
2022/11/14 00:23:53;;;;;;;30.52;20.88;;;5.90;99.90;;;;;;4991060;28;20112;-73
2022/11/14 00:26:18;;;;;;;30.92;20.95;;;5.90;99.90;;;;;;4986511;28;20034;-73
2022/11/14 00:28:44;;;;;;;35.45;22.52;;;5.90;99.90;;;;;;4984382;28;20431;-73
2022/11/14 00:31:10;;;;;;;33.97;22.00;;;5.90;99.90;;;;;;4991997;28;20030;-73
2022/11/14 00:33:36;;;;;;;35.00;21.70;;;5.90;99.90;;;;;;4991889;28;20034;-73
2022/11/14 00:36:02;;;;;;;32.95;21.80;;;5.90;99.90;;;;;;4991444;28;20092;-72
2022/11/14 00:38:27;;;;;;;35.67;23.55;;;5.90;99.90;;;;;;4992312;28;20018;-72
2022/11/14 00:40:53;;;;;;;35.78;22.77;;;5.90;99.90;;;;;;4992009;28;20039;-73
2022/11/14 00:43:19;;;;;;;33.88;22.85;;;6.00;99.90;;;;;;4991907;28;20077;-73
2022/11/14 00:45:45;;;;;;;34.75;23.20;;;6.00;99.90;;;;;;4992387;28;20045;-72
2022/11/14 00:48:11;;;;;;;36.22;21.90;;;6.00;99.90;;;;;;4991851;28;20502;-73
2022/11/14 00:50:36;;;;;;;32.22;21.20;;;6.00;99.90;;;;;;4983603;28;20082;-73
2022/11/14 00:53:02;;;;;;;30.60;20.70;;;6.00;99.90;;;;;;4986321;28;20022;-73
2022/11/14 00:55:28;;;;;;;33.40;21.98;;;6.00;99.90;;;;;;4985579;28;20050;-73
2022/11/14 00:57:54;;;;;;;32.92;21.33;;;6.00;99.90;;;;;;4985091;28;20130;-73
2022/11/14 01:00:20;;;;;;;29.98;20.83;;;6.00;99.90;;;;;;4991216;28;20501;-73
2022/11/14 01:02:45;;;;;;;32.13;21.23;;;6.00;99.90;;;;;;4992223;28;20030;-73
2022/11/14 01:05:11;;;;;;;29.23;19.58;;;6.00;99.90;;;;;;4973920;28;20027;-72
2022/11/14 01:07:37;;;;;;;28.77;20.38;;;6.00;99.90;;;;;;4981609;28;20491;-73
2022/11/14 01:10:03;;;;;;;28.27;19.67;;;6.00;99.90;;;;;;4991426;28;20029;-72
2022/11/14 01:12:28;;;;;;;28.30;19.45;;;6.00;99.90;;;;;;4992308;28;20065;-73
2022/11/14 01:14:54;;;;;;;28.65;19.77;;;6.00;99.90;;;;;;4991100;28;20026;-72
2022/11/14 01:17:19;;;;;;;31.70;19.35;;;6.00;99.90;;;;;;4991785;28;20037;-74
2022/11/14 01:19:45;;;;;;;26.92;19.35;;;5.90;99.90;;;;;;4989947;28;20069;-73
2022/11/14 01:22:10;;;;;;;29.23;19.33;;;6.00;99.90;;;;;;4990929;28;20065;-72
2022/11/14 01:24:36;;;;;;;27.02;19.02;;;5.90;99.90;;;;;;4990886;28;20057;-72
2022/11/14 01:27:02;;;;;;;29.80;20.15;;;6.00;99.90;;;;;;4977331;28;20019;-73
2022/11/14 01:29:28;;;;;;;28.77;19.80;;;5.90;99.90;;;;;;4992355;28;20478;-73
2022/11/14 01:31:53;;;;;;;29.75;19.55;;;5.90;99.90;;;;;;4990815;28;20026;-73
2022/11/14 01:34:19;;;;;;;30.33;19.48;;;5.90;99.90;;;;;;4991865;28;20595;-73
2022/11/14 01:36:44;;;;;;;28.10;19.70;;;5.90;99.90;;;;;;4990144;28;20049;-72
2022/11/14 01:39:10;;;;;;;28.98;18.95;;;5.90;99.90;;;;;;4981865;28;20027;-73
2022/11/14 01:41:35;;;;;;;29.95;18.75;;;5.90;99.90;;;;;;4985780;28;22389;-72
2022/11/14 01:44:01;;;;;;;28.40;18.83;;;5.90;99.90;;;;;;4983961;28;20092;-73
2022/11/14 01:46:31;;;;;;;27.95;18.63;;;5.90;99.90;;;;;;4984379;28;20030;-73
2022/11/14 01:49:12;;;;;;;27.85;18.02;;;5.90;99.90;;;;;;4984919;28;20027;-73
2022/11/14 01:51:40;;;;;;;28.05;18.58;;;5.90;99.90;;;;;;4984821;28;20343;-73
2022/11/14 01:54:10;;;;;;;27.70;18.30;;;5.80;99.90;;;;;;4989986;28;20110;-73
2022/11/14 01:56:44;;;;;;;27.33;18.33;;;5.80;99.90;;;;;;4991338;28;20504;-73
2022/11/14 01:59:16;;;;;;;27.45;18.25;;;5.80;99.90;;;;;;4989947;28;20390;-73
2022/11/14 02:01:46;;;;;;;27.17;17.90;;;5.80;99.90;;;;;;4990987;28;20761;-73
2022/11/14 02:04:19;;;;;;;28.38;18.33;;;5.80;99.90;;;;;;4991137;28;20061;-73
2022/11/14 02:06:46;;;;;;;25.33;18.13;;;5.80;99.90;;;;;;4990547;28;20034;-73
2022/11/14 02:09:12;;;;;;;24.17;17.73;;;5.70;99.90;;;;;;4981844;28;20039;-72
2022/11/14 02:11:41;;;;;;;26.20;18.48;;;5.70;99.90;;;;;;4984515;28;20037;-73
2022/11/14 02:14:07;;;;;;;27.90;17.73;;;5.70;99.90;;;;;;4971667;28;20027;-73
2022/11/14 02:16:33;;;;;;;26.15;18.40;;;5.70;99.90;;;;;;4983202;28;20023;-73
2022/11/14 02:18:59;;;;;;;27.08;17.52;;;5.70;99.90;;;;;;4985961;28;20033;-73
2022/11/14 02:21:24;;;;;;;28.10;18.15;;;5.70;99.90;;;;;;4990903;28;20377;-73
2022/11/14 02:23:50;;;;;;;26.85;18.17;;;5.70;99.90;;;;;;4989271;28;20483;-72
2022/11/14 02:26:20;;;;;;;29.45;18.77;;;5.70;99.90;;;;;;4986481;28;20030;-72
2022/11/14 02:28:46;;;;;;;26.45;18.58;;;5.60;99.90;;;;;;4991579;28;20410;-72
2022/11/14 02:31:13;;;;;;;26.80;17.92;;;5.60;99.90;;;;;;4989779;28;20018;-73
2022/11/14 02:33:38;;;;;;;28.92;18.67;;;5.60;99.90;;;;;;4976554;28;20125;-73
2022/11/14 02:36:04;;;;;;;25.70;17.85;;;5.60;99.90;;;;;;4975952;28;20117;-73
2022/11/14 02:38:30;;;;;;;25.63;17.45;;;5.60;99.90;;;;;;4990700;28;20065;-73
2022/11/14 02:40:55;;;;;;;25.98;17.77;;;5.50;99.90;;;;;;4989255;28;20105;-72
2022/11/14 02:43:21;;;;;;;25.27;18.38;;;5.50;99.90;;;;;;4990923;28;20137;-73
2022/11/14 02:45:46;;;;;;;26.55;17.73;;;5.50;99.90;;;;;;4989888;28;20022;-73
2022/11/14 02:48:12;;;;;;;27.83;18.40;;;5.50;99.90;;;;;;4989928;28;20022;-72
2022/11/14 02:50:38;;;;;;;24.50;17.45;;;5.50;99.90;;;;;;4989845;28;20037;-73
2022/11/14 02:53:03;;;;;;;27.52;17.50;;;5.50;99.90;;;;;;4974354;28;20018;-73
2022/11/14 02:55:29;;;;;;;27.58;18.30;;;5.50;99.90;;;;;;4989821;28;20072;-73
2022/11/14 02:57:54;;;;;;;23.75;16.95;;;5.40;99.90;;;;;;4989558;28;20050;-73
2022/11/14 03:00:20;;;;;;;27.50;18.92;;;5.40;99.90;;;;;;4990439;28;20358;-73
2022/11/14 03:02:45;;;;;;;27.77;17.77;;;5.40;99.90;;;;;;4989466;28;20038;-73
2022/11/14 03:05:11;;;;;;;26.90;18.60;;;5.40;99.90;;;;;;4989247;28;20019;-73
2022/11/14 03:07:37;;;;;;;26.80;17.90;;;5.40;99.90;;;;;;4989488;28;20026;-73
2022/11/14 03:10:03;;;;;;;23.23;16.80;;;5.40;99.90;;;;;;4989175;28;20034;-73
2022/11/14 03:12:28;;;;;;;25.63;17.92;;;5.40;99.90;;;;;;4989333;28;20049;-73
2022/11/14 03:14:54;;;;;;;27.52;17.52;;;5.40;99.90;;;;;;4989618;28;20081;-73
2022/11/14 03:17:20;;;;;;;25.88;17.35;;;5.30;99.90;;;;;;4988864;28;20050;-73
2022/11/14 03:19:45;;;;;;;25.65;17.88;;;5.30;99.90;;;;;;4990654;28;20027;-73
2022/11/14 03:22:11;;;;;;;28.58;18.17;;;5.30;99.90;;;;;;4976640;28;20131;-73
2022/11/14 03:24:36;;;;;;;25.83;17.85;;;5.20;99.90;;;;;;4987836;28;20113;-73
2022/11/14 03:27:02;;;;;;;28.02;18.50;;;5.20;99.90;;;;;;4988553;28;20511;-73
2022/11/14 03:29:28;;;;;;;25.52;18.33;;;5.20;99.90;;;;;;4990184;28;20483;-72
2022/11/14 03:31:53;;;;;;;26.52;18.23;;;5.20;99.90;;;;;;4988868;28;20030;-72
2022/11/14 03:34:19;;;;;;;25.98;17.88;;;5.20;99.90;;;;;;4989834;28;20022;-73
2022/11/14 03:36:44;;;;;;;26.40;17.38;;;5.20;99.90;;;;;;4989137;28;20030;-72
2022/11/14 03:39:10;;;;;;;27.77;18.58;;;5.20;99.90;;;;;;4989720;28;20018;-73
2022/11/14 03:41:35;;;;;;;26.45;17.55;;;5.10;99.90;;;;;;4987981;28;20120;-73
2022/11/14 03:44:01;;;;;;;26.15;17.67;;;5.10;99.90;;;;;;4988035;28;20018;-73
2022/11/14 03:46:27;;;;;;;26.98;17.92;;;5.10;99.90;;;;;;4989651;28;20092;-73
2022/11/14 03:48:52;;;;;;;27.67;18.08;;;5.10;99.90;;;;;;4989195;28;20029;-72
2022/11/14 03:51:18;;;;;;;26.23;17.50;;;5.10;99.90;;;;;;4989501;28;20023;-73
2022/11/14 03:53:43;;;;;;;28.90;18.65;;;5.00;99.90;;;;;;4989585;28;20022;-73
2022/11/14 03:56:09;;;;;;;28.23;17.58;;;5.10;99.90;;;;;;4989315;28;20026;-73
2022/11/14 03:58:34;;;;;;;28.30;18.23;;;5.00;99.90;;;;;;4989061;28;20550;-73
2022/11/14 04:01:00;;;;;;;25.90;17.50;;;5.00;99.90;;;;;;4989038;28;20022;-73
2022/11/14 04:03:25;;;;;;;28.25;18.27;;;5.00;99.90;;;;;;4978149;28;20031;-73
2022/11/14 04:05:51;;;;;;;29.52;18.70;;;5.00;99.90;;;;;;4992495;28;20058;-73
2022/11/14 04:08:17;;;;;;;28.55;18.48;;;5.00;99.90;;;;;;4980418;28;20018;-73
2022/11/14 04:10:46;;;;;;;30.95;18.70;;;5.00;99.90;;;;;;4988898;28;20032;-73
2022/11/14 04:13:12;;;;;;;29.70;19.40;;;5.00;99.90;;;;;;4992946;28;20077;-73
2022/11/14 04:15:37;;;;;;;31.98;19.83;;;4.90;99.90;;;;;;5008127;28;20486;-72
2022/11/14 04:18:03;;;;;;;29.40;19.20;;;4.90;99.90;;;;;;4992598;28;20030;-73
2022/11/14 04:20:28;;;;;;;31.77;19.77;;;4.90;99.90;;;;;;4992375;28;20027;-73
2022/11/14 04:22:54;;;;;;;31.75;19.75;;;4.90;99.90;;;;;;4992595;28;20033;-73
2022/11/14 04:25:19;;;;;;;32.63;20.05;;;4.90;99.90;;;;;;4992247;28;20018;-73
2022/11/14 04:27:45;;;;;;;30.10;19.40;;;4.90;99.90;;;;;;4991432;28;20026;-73
2022/11/14 04:30:11;;;;;;;29.75;19.75;;;4.90;99.90;;;;;;4992436;28;20082;-73
2022/11/14 04:32:36;;;;;;;30.83;20.13;;;4.90;99.90;;;;;;4992465;28;20109;-73
2022/11/14 04:35:02;;;;;;;33.83;20.25;;;4.90;99.90;;;;;;4987255;28;20506;-73
2022/11/14 04:37:27;;;;;;;32.42;19.77;;;4.90;99.90;;;;;;4991044;28;20050;-73
2022/11/14 04:39:57;;;;;;;32.85;19.05;;;4.80;99.90;;;;;;4979048;28;20166;-73
2022/11/14 04:42:24;;;;;;;33.00;20.13;;;4.80;99.90;;;;;;4992171;28;20410;-73
2022/11/14 04:44:49;;;;;;;35.53;20.77;;;4.80;99.90;;;;;;4992327;28;20360;-73
2022/11/14 04:47:15;;;;;;;34.70;20.30;;;4.80;99.90;;;;;;4981790;28;20029;-73
2022/11/14 04:49:40;;;;;;;32.58;19.42;;;4.80;99.90;;;;;;4988661;28;20101;-73
2022/11/14 04:52:06;;;;;;;36.25;20.33;;;4.80;99.90;;;;;;4992021;28;20411;-73
2022/11/14 04:54:31;;;;;;;36.15;21.65;;;4.70;99.90;;;;;;4992648;28;20049;-73
2022/11/14 04:56:57;;;;;;;37.47;20.88;;;4.70;99.90;;;;;;4978393;28;20023;-73
2022/11/14 04:59:22;;;;;;;37.60;21.98;;;4.70;99.90;;;;;;4991804;28;20030;-73
2022/11/14 05:01:48;;;;;;;36.25;20.98;;;4.70;99.90;;;;;;4990885;28;20487;-73
2022/11/14 05:04:14;;;;;;;38.22;21.02;;;4.70;99.90;;;;;;4992519;28;20331;-73
2022/11/14 05:06:39;;;;;;;38.10;21.80;;;4.70;99.90;;;;;;4991281;28;20105;-73
2022/11/14 05:09:05;;;;;;;37.60;22.00;;;4.70;99.90;;;;;;4990838;28;20423;-73
2022/11/14 05:11:30;;;;;;;39.08;22.13;;;4.60;99.90;;;;;;4991728;28;20080;-72
2022/11/14 05:13:56;;;;;;;38.28;21.70;;;4.70;99.90;;;;;;4991110;28;20089;-73
2022/11/14 05:16:21;;;;;;;35.97;22.25;;;4.70;99.90;;;;;;4990520;28;20044;-73
2022/11/14 05:18:47;;;;;;;39.88;23.20;;;4.70;99.90;;;;;;4990983;28;20038;-73
2022/11/14 05:21:14;;;;;;;42.55;23.67;;;4.60;99.90;;;;;;4990736;28;20081;-73
2022/11/14 05:23:39;;;;;;;40.50;21.63;;;4.60;99.90;;;;;;4991796;28;20050;-73
2022/11/14 05:26:10;;;;;;;43.63;24.10;;;4.60;99.90;;;;;;4990884;28;20045;-73
2022/11/14 05:28:36;;;;;;;42.88;23.48;;;4.70;99.90;;;;;;4992146;28;20023;-73
2022/11/14 05:31:03;;;;;;;43.20;23.38;;;4.60;99.90;;;;;;4991031;28;20101;-73
2022/11/14 05:33:30;;;;;;;43.28;23.52;;;4.60;99.90;;;;;;4990057;28;20022;-73
2022/11/14 05:35:55;;;;;;;44.13;24.50;;;4.60;99.90;;;;;;4986979;28;20440;-73
2022/11/14 05:38:21;;;;;;;43.72;24.13;;;4.60;99.90;;;;;;4990678;28;20026;-73
2022/11/14 05:40:46;;;;;;;48.30;24.52;;;4.60;99.90;;;;;;4990206;28;20030;-72
2022/11/14 05:43:12;;;;;;;47.35;25.90;;;4.60;99.90;;;;;;4990838;28;20050;-73
2022/11/14 05:45:37;;;;;;;47.90;27.50;;;4.60;99.90;;;;;;4990634;28;20033;-73
2022/11/14 05:48:03;;;;;;;49.53;26.98;;;4.70;99.90;;;;;;4989570;28;20084;-73
2022/11/14 05:50:29;;;;;;;45.03;25.40;;;4.70;99.90;;;;;;4990987;28;20037;-73
2022/11/14 05:52:55;;;;;;;48.22;26.48;;;4.60;99.90;;;;;;4990204;28;20049;-73
2022/11/14 05:55:21;;;;;;;56.38;28.33;;;4.60;99.90;;;;;;4990771;28;20018;-73
2022/11/14 05:57:47;;;;;;;48.25;25.70;;;4.60;99.90;;;;;;4989748;28;20068;-73
2022/11/14 06:00:13;;;;;;;51.35;27.52;;;4.60;99.90;;;;;;4990223;28;20041;-73
2022/11/14 06:02:38;;;;;;;50.92;27.15;;;4.60;99.90;;;;;;4989984;28;20027;-72
2022/11/14 06:05:04;;;;;;;49.42;26.70;;;4.60;99.90;;;;;;4989565;28;20529;-73
2022/11/14 06:07:30;;;;;;;52.25;26.77;;;4.70;99.90;;;;;;4990118;28;20391;-72
2022/11/14 06:09:55;;;;;;;50.42;27.08;;;4.70;99.90;;;;;;4988713;28;20022;-73
2022/11/14 06:12:21;;;;;;;55.17;27.20;;;4.70;99.90;;;;;;4990341;28;20058;-72
2022/11/14 06:14:46;;;;;;;57.28;28.02;;;4.60;99.90;;;;;;4988969;28;20394;-72
2022/11/14 06:17:12;;;;;;;53.08;27.73;;;4.60;99.90;;;;;;4989367;28;20022;-72
2022/11/14 06:19:38;;;;;;;51.20;27.13;;;4.60;99.90;;;;;;4989247;28;20501;-73
2022/11/14 06:22:03;;;;;;;55.60;29.38;;;4.60;99.90;;;;;;4989788;28;20371;-73
2022/11/14 06:24:29;;;;;;;51.00;26.77;;;4.60;99.90;;;;;;4990122;28;20019;-73
2022/11/14 06:26:54;;;;;;;56.22;28.40;;;4.60;99.90;;;;;;4989722;28;20022;-72
2022/11/14 06:29:20;;;;;;;57.90;28.35;;;4.60;99.90;;;;;;4990348;28;20485;-72
2022/11/14 06:31:45;;;;;;;54.25;28.92;;;4.60;99.90;;;;;;4990684;28;20030;-73
2022/11/14 06:34:11;;;;;;;51.83;27.48;;;4.60;99.90;;;;;;4989623;28;20030;-72
2022/11/14 06:36:37;;;;;;;54.83;28.10;;;4.60;99.90;;;;;;4990501;28;20104;-72
2022/11/14 06:39:03;;;;;;;54.22;28.08;;;4.60;99.90;;;;;;4988391;28;20023;-73
2022/11/14 06:41:28;;;;;;;55.42;27.70;;;4.60;99.90;;;;;;4988142;28;20026;-73
2022/11/14 06:43:54;;;;;;;62.72;28.13;;;4.60;99.90;;;;;;4989496;28;20402;-71
2022/11/14 06:46:21;;;;;;;51.75;27.70;;;4.60;99.90;;;;;;4988528;28;20061;-71
2022/11/14 06:48:48;;;;;;;56.63;27.92;;;4.60;99.90;;;;;;4989656;28;20089;-72
2022/11/14 06:51:15;;;;;;;55.45;28.13;;;4.50;99.90;;;;;;4989526;28;20023;-72
2022/11/14 06:53:41;;;;;;;51.17;26.23;;;4.50;99.90;;;;;;4988542;28;20113;-73
2022/11/14 06:56:12;;;;;;;54.90;27.15;;;4.50;99.90;;;;;;4989090;28;20097;-72
2022/11/14 06:58:43;;;;;;;52.35;26.63;;;4.50;99.90;;;;;;4987429;28;20410;-71
2022/11/14 07:01:15;;;;;;;51.75;27.40;;;4.50;99.90;;;;;;4988663;28;20244;-72
2022/11/14 07:03:41;;;;;;;52.35;26.65;;;4.50;99.90;;;;;;4988694;28;20034;-71
2022/11/14 07:06:09;;;;;;;53.63;26.90;;;4.40;99.90;;;;;;4989032;28;20026;-72
2022/11/14 07:08:34;;;;;;;48.75;25.88;;;4.40;99.90;;;;;;4987696;28;20117;-72
2022/11/14 07:11:26;;;;;;;55.28;27.60;;;4.40;99.90;;;;;;4989493;28;20134;-71
2022/11/14 07:13:53;;;;;;;58.90;28.05;;;4.40;99.90;;;;;;4986490;28;20041;-72
2022/11/14 07:16:22;;;;;;;52.28;27.80;;;4.40;99.90;;;;;;4988241;28;20026;-72
2022/11/14 07:18:47;;;;;;;54.25;27.63;;;4.40;99.90;;;;;;4988194;28;20026;-72
2022/11/14 07:21:13;;;;;;;55.38;28.63;;;4.40;99.90;;;;;;4984024;28;20049;-73
2022/11/14 07:23:40;;;;;;;55.65;28.40;;;4.40;99.90;;;;;;4990185;28;20034;-72
2022/11/14 07:26:09;;;;;;;51.28;27.45;;;4.40;99.90;;;;;;4990077;28;20423;-72
2022/11/14 07:28:36;;;;;;;54.35;27.35;;;4.40;99.90;;;;;;4989239;28;20034;-72
2022/11/14 07:31:03;;;;;;;52.92;27.60;;;4.40;99.90;;;;;;4986713;28;20030;-73
2022/11/14 07:33:30;;;;;;;52.75;27.75;;;4.40;99.90;;;;;;4989634;28;20022;-71
2022/11/14 07:35:55;;;;;;;53.97;26.77;;;4.40;99.90;;;;;;4992164;28;20057;-72
2022/11/14 07:38:21;;;;;;;54.03;26.92;;;4.40;99.90;;;;;;4994964;28;20022;-71
2022/11/14 07:40:57;;;;;;;57.88;28.15;;;4.40;99.90;;;;;;4994703;28;20485;-71
2022/11/14 07:43:23;;;;;;;57.20;28.42;;;4.50;99.90;;;;;;4990771;28;20073;-71
2022/11/14 07:45:49;;;;;;;55.15;27.17;;;4.40;99.90;;;;;;4992708;28;20502;-72
2022/11/14 07:48:15;;;;;;;53.88;27.48;;;4.40;99.90;;;;;;4992941;28;20503;-72
2022/11/14 07:50:41;;;;;;;55.10;27.67;;;4.40;99.90;;;;;;4992506;28;20030;-72
2022/11/14 07:53:07;;;;;;;50.92;26.33;;;4.50;99.90;;;;;;4992942;28;20521;-72
2022/11/14 07:55:35;;;;;;;52.88;27.38;;;4.50;99.90;;;;;;4993439;28;20026;-73
2022/11/14 07:58:01;;;;;;;52.58;28.05;;;4.50;99.90;;;;;;4992410;28;20023;-73
2022/11/14 08:00:26;;;;;;;55.03;27.55;;;4.50;99.90;;;;;;4991378;28;20026;-72
2022/11/14 08:02:52;;;;;;;49.33;26.55;;;4.50;99.90;;;;;;4992696;28;20073;-72
2022/11/14 08:05:18;;;;;;;50.03;27.33;;;4.50;99.90;;;;;;4987439;28;20563;-72
2022/11/14 08:07:44;;;;;;;49.90;26.88;;;4.60;99.90;;;;;;4987225;28;20120;-72
2022/11/14 08:10:12;;;;;;;52.45;27.00;;;4.60;99.90;;;;;;4987719;28;20495;-72
2022/11/14 08:12:38;;;;;;;49.22;25.92;;;4.60;99.90;;;;;;4993303;28;20041;-72
2022/11/14 08:15:06;;;;;;;49.75;26.95;;;4.60;99.90;;;;;;4987243;28;20478;-70
2022/11/14 08:17:31;;;;;;;45.80;24.67;;;4.70;99.90;;;;;;4991815;28;20022;-72
2022/11/14 08:19:57;;;;;;;47.60;25.60;;;4.70;99.90;;;;;;4992766;28;20498;-73
2022/11/14 08:22:23;;;;;;;46.30;25.02;;;4.70;99.90;;;;;;4987108;28;20113;-72
2022/11/14 08:24:48;;;;;;;47.17;25.33;;;4.70;99.90;;;;;;4990543;28;20060;-71
2022/11/14 08:27:14;;;;;;;45.63;25.38;;;4.80;99.90;;;;;;5006536;28;20026;-72
2022/11/14 08:29:39;;;;;;;46.95;25.08;;;4.80;99.90;;;;;;4991447;28;20388;-72
2022/11/14 08:32:05;;;;;;;45.78;25.23;;;4.80;99.90;;;;;;4992342;28;20018;-72
2022/11/14 08:34:31;;;;;;;46.50;24.95;;;4.90;99.90;;;;;;4991170;28;20018;-72
2022/11/14 08:36:57;;;;;;;44.65;24.10;;;4.80;99.90;;;;;;4991663;28;20456;-70
2022/11/14 08:39:22;;;;;;;45.53;24.20;;;4.90;99.90;;;;;;4991824;28;20081;-72
2022/11/14 08:41:48;;;;;;;42.83;24.10;;;5.00;99.90;;;;;;4991463;28;20058;-70
2022/11/14 08:44:14;;;;;;;42.42;22.73;;;5.00;99.90;;;;;;4990053;28;20429;-72
2022/11/14 08:46:41;;;;;;;39.80;23.48;;;5.00;99.90;;;;;;4989446;28;20030;-72
2022/11/14 08:49:06;;;;;;;49.83;23.48;;;5.10;99.90;;;;;;4990397;28;20034;-72
2022/11/14 08:51:32;;;;;;;39.53;22.95;;;5.20;99.90;;;;;;4991324;28;20026;-73
2022/11/14 08:53:57;;;;;;;35.85;21.05;;;5.30;99.90;;;;;;4991538;28;20636;-71
2022/11/14 08:56:24;;;;;;;39.60;22.27;;;5.30;99.90;;;;;;4993057;28;20383;-71
2022/11/14 08:58:50;;;;;;;41.38;22.20;;;5.30;99.90;;;;;;4992890;28;20035;-72
2022/11/14 09:01:15;;;;;;;37.72;21.88;;;5.40;99.90;;;;;;4991875;28;20093;-73
2022/11/14 09:03:41;;;;;;;37.25;20.95;;;5.40;99.90;;;;;;4990956;28;20475;-72
2022/11/14 09:06:07;;;;;;;38.67;21.75;;;5.50;99.90;;;;;;4990998;28;20046;-72
2022/11/14 09:08:32;;;;;;;33.22;20.75;;;5.50;99.90;;;;;;4986415;28;20474;-72
2022/11/14 09:11:02;;;;;;;39.13;21.58;;;5.60;99.90;;;;;;4985660;28;20026;-69
2022/11/14 09:13:30;;;;;;;39.70;21.75;;;5.70;99.90;;;;;;4990590;28;20030;-69
2022/11/14 09:15:56;;;;;;;36.08;20.45;;;5.70;99.90;;;;;;4990595;28;20137;-70
2022/11/14 09:18:22;;;;;;;37.95;20.98;;;5.80;99.90;;;;;;4990637;28;20606;-69
2022/11/14 09:20:48;;;;;;;37.03;20.45;;;5.90;99.90;;;;;;4990678;28;20033;-72
2022/11/14 09:23:14;;;;;;;35.25;20.92;;;5.90;99.90;;;;;;5005838;28;20500;-72
2022/11/14 09:25:39;;;;;;;35.03;20.33;;;6.00;99.90;;;;;;4990892;28;20026;-72
2022/11/14 09:28:06;;;;;;;32.70;20.52;;;6.10;99.90;;;;;;4990584;28;20065;-72
2022/11/14 09:30:32;;;;;;;34.47;20.13;;;6.10;99.90;;;;;;4991017;28;20029;-72
2022/11/14 09:33:00;;;;;;;35.60;20.38;;;6.20;99.90;;;;;;4972726;28;20042;-71
2022/11/14 09:35:26;;;;;;;32.22;19.40;;;6.30;99.90;;;;;;4990349;28;20080;-71
2022/11/14 09:38:02;;;;;;;34.35;20.38;;;6.30;99.90;;;;;;4983934;28;20037;-72
2022/11/14 09:40:30;;;;;;;33.90;20.77;;;6.40;99.90;;;;;;4984945;28;20417;-72
2022/11/14 09:43:11;;;;;;;33.78;19.27;;;6.40;99.90;;;;;;4981650;28;20050;-71
2022/11/14 09:45:40;;;;;;;33.58;20.27;;;6.50;99.90;;;;;;4980200;28;20026;-70
2022/11/14 09:48:12;;;;;;;32.03;19.70;;;6.60;99.90;;;;;;4985190;28;20023;-70
2022/11/14 09:50:45;;;;;;;31.33;19.67;;;6.70;99.90;;;;;;4990399;28;20030;-71
2022/11/14 09:53:43;;;;;;;34.17;19.60;;;6.80;99.90;;;;;;4988565;28;20035;-71
2022/11/14 09:56:13;;;;;;;32.10;19.13;;;6.80;99.90;;;;;;4973844;28;20394;-72
2022/11/14 09:58:41;;;;;;;31.17;18.92;;;6.90;99.90;;;;;;4988990;28;20034;-71
2022/11/14 10:01:31;;;;;;;30.08;19.45;;;7.00;99.90;;;;;;4989411;28;20057;-71
2022/11/14 10:04:10;;;;;;;34.88;19.27;;;7.10;99.90;;;;;;4965443;28;20031;-71
2022/11/14 10:07:15;;;;;;;32.67;18.77;;;7.10;99.90;;;;;;4990827;28;20022;-71
2022/11/14 10:09:50;;;;;;;32.25;18.63;;;7.20;99.90;;;;;;4946879;28;20096;-71
2022/11/14 10:12:30;;;;;;;28.30;18.55;;;7.30;99.90;;;;;;4991023;28;20022;-71
2022/11/14 10:15:15;;;;;;;31.02;19.15;;;7.40;99.90;;;;;;4990050;28;20022;-71
2022/11/14 10:17:56;;;;;;;26.73;17.23;;;7.40;99.90;;;;;;4981991;28;20101;-72
2022/11/14 10:20:30;;;;;;;27.92;17.92;;;7.50;99.90;;;;;;4988682;28;20303;-71
2022/11/14 10:23:26;;;;;;;28.57;16.67;;;7.50;99.90;;;;;;4979763;28;20027;-71
2022/11/14 10:25:59;;;;;;;27.85;17.20;;;7.60;99.90;;;;;;4978237;28;20478;-71
2022/11/14 10:28:58;;;;;;;25.20;17.25;;;7.60;99.90;;;;;;4989045;28;20026;-71
2022/11/14 10:31:39;;;;;;;26.45;16.95;;;7.60;99.90;;;;;;4990306;28;20026;-71
2022/11/14 10:34:13;;;;;;;27.65;16.35;;;7.70;99.90;;;;;;4990654;28;20027;-71
2022/11/14 10:36:57;;;;;;;28.10;17.63;;;7.70;99.90;;;;;;4990612;28;20029;-71
2022/11/14 10:39:30;;;;;;;30.05;17.50;;;7.80;99.90;;;;;;4976199;28;20043;-71
2022/11/14 10:42:01;;;;;;;28.73;16.65;;;7.90;99.90;;;;;;4985142;28;20065;-71
2022/11/14 10:44:33;;;;;;;24.38;16.38;;;8.00;99.90;;;;;;4989855;28;20483;-71
2022/11/14 10:47:04;;;;;;;25.98;16.17;;;8.10;99.90;;;;;;4989244;28;20347;-71
2022/11/14 10:49:32;;;;;;;26.42;16.60;;;8.20;99.90;;;;;;4990148;28;20379;-71
2022/11/14 10:52:05;;;;;;;23.27;16.63;;;8.20;99.90;;;;;;4989320;28;20022;-71
2022/11/14 10:54:36;;;;;;;29.52;16.67;;;8.30;99.90;;;;;;4990347;28;20479;-71
2022/11/14 10:57:02;;;;;;;25.35;16.55;;;8.30;99.90;;;;;;4990479;28;20045;-71
2022/11/14 10:59:28;;;;;;;21.95;15.50;;;8.30;99.90;;;;;;4990056;28;20011;-71
2022/11/14 11:01:56;;;;;;;25.27;16.08;;;8.40;99.90;;;;;;4984687;28;20034;-72
2022/11/14 11:04:30;;;;;;;24.42;15.80;;;8.40;99.90;;;;;;4982455;28;20081;-71
2022/11/14 11:13:04;;;;;;;27.27;16.55;;;8.50;99.90;;;;;;4988003;28;20037;-71
2022/11/14 11:15:31;;;;;;;25.55;16.45;;;8.60;99.90;;;;;;4982031;28;20098;-71
2022/11/14 11:17:57;;;;;;;24.13;16.42;;;8.60;99.90;;;;;;4992735;28;20105;-71
2022/11/14 11:20:23;;;;;;;26.00;16.73;;;8.70;99.90;;;;;;4987041;28;20026;-70
2022/11/14 11:22:59;;;;;;;28.10;17.73;;;8.70;99.90;;;;;;4991073;28;20084;-70
2022/11/14 11:25:28;;;;;;;37.08;18.60;;;8.70;99.90;;;;;;4990503;28;20121;-70
2022/11/14 11:28:09;;;;;;;34.17;18.85;;;8.80;99.90;;;;;;4992889;28;20661;-71
2022/11/14 11:30:36;;;;;;;41.55;21.02;;;8.90;99.90;;;;;;4993312;28;20470;-70
2022/11/14 11:33:25;;;;;;;45.45;22.38;;;8.90;99.90;;;;;;4993480;28;20085;-71
2022/11/14 11:35:56;;;;;;;47.15;24.30;;;8.90;99.90;;;;;;4986597;28;20478;-71
2022/11/14 11:38:26;;;;;;;43.13;22.88;;;9.00;99.90;;;;;;4985728;28;20038;-71
2022/11/14 11:40:57;;;;;;;46.28;22.70;;;9.10;99.90;;;;;;4982845;28;20069;-71
2022/11/14 11:43:43;;;;;;;45.00;23.10;;;9.20;99.90;;;;;;4984844;28;20043;-71
2022/11/14 11:46:33;;;;;;;42.80;22.65;;;9.30;99.90;;;;;;4979677;28;20040;-70
2022/11/14 11:49:06;;;;;;;50.53;22.95;;;9.40;99.90;;;;;;4989585;28;20093;-70
2022/11/14 11:51:36;;;;;;;46.13;22.67;;;9.50;99.90;;;;;;4990420;28;20513;-71
2022/11/14 11:54:28;;;;;;;47.78;23.45;;;9.60;99.90;;;;;;4990640;28;20030;-71
2022/11/14 11:57:00;;;;;;;42.70;21.63;;;9.60;99.90;;;;;;4983660;28;20446;-70
2022/11/14 11:59:35;;;;;;;40.42;21.08;;;9.70;99.90;;;;;;4992899;28;20022;-71
2022/11/14 12:02:22;;;;;;;36.85;20.73;;;9.70;99.90;;;;;;4990569;28;20030;-70
2022/11/14 12:04:50;;;;;;;39.70;20.60;;;9.80;99.90;;;;;;4990481;28;20113;-71
2022/11/14 12:07:40;;;;;;;39.72;19.98;;;9.80;99.90;;;;;;4989718;28;20018;-71
2022/11/14 12:10:20;;;;;;;35.67;20.35;;;9.80;99.90;;;;;;4986947;28;20558;-70
2022/11/14 12:13:12;;;;;;;39.58;20.88;;;9.90;99.90;;;;;;4992816;28;20030;-71
2022/11/14 12:16:00;;;;;;;36.53;20.67;;;10.00;99.90;;;;;;4991898;28;20433;-70
2022/11/14 12:18:52;;;;;;;39.03;21.67;;;10.10;99.90;;;;;;4992329;28;20038;-71
2022/11/14 12:21:30;;;;;;;37.67;20.65;;;10.10;99.90;;;;;;4991139;28;20046;-69
2022/11/14 12:23:56;;;;;;;40.90;21.77;;;10.20;99.90;;;;;;4989677;28;20050;-69
2022/11/14 12:26:48;;;;;;;39.05;21.25;;;10.20;99.90;;;;;;4990687;28;20050;-70
2022/11/14 12:29:38;;;;;;;35.58;20.80;;;10.30;99.90;;;;;;4989883;28;20034;-70
2022/11/14 12:32:09;;;;;;;38.88;20.73;;;10.40;99.90;;;;;;4988539;28;20128;-72
2022/11/14 12:34:42;;;;;;;36.00;20.48;;;10.40;99.90;;;;;;4989381;28;20084;-70
2022/11/14 12:37:16;;;;;;;39.05;20.20;;;10.50;99.90;;;;;;4989765;28;20424;-71
2022/11/14 12:39:56;;;;;;;33.22;19.92;;;10.50;99.90;;;;;;4989859;28;20038;-71
2022/11/14 12:42:21;;;;;;;31.85;19.40;;;10.60;99.90;;;;;;4988596;28;20069;-71
2022/11/14 12:44:47;;;;;;;35.22;20.23;;;10.60;99.90;;;;;;4992530;28;20026;-71
2022/11/14 12:47:19;;;;;;;31.92;18.80;;;10.70;99.90;;;;;;4993481;28;20034;-71
2022/11/14 12:49:47;;;;;;;30.65;19.17;;;10.70;99.90;;;;;;4987678;28;20030;-71